Time;durP1;ratioP1;P1;durP2;ratioP2;P2;SDS_P1;SDS_P2;PMS_P1;PMS_P2;Temp;Humidity;BMP_temperature;BMP_pressure;BME280_temperature;BME280_humidity;BME280_pressure;Samples;Min_cycle;Max_cycle;Signal;HPM_P1;HPM_P2
2023/08/31 00:01:32;;;;;;;3.38;1.33;;;;;;;;;;4928029;29;20056;-85
2023/08/31 00:03:59;;;;;;;2.75;1.23;;;;;;;;;;4929904;29;20888;-84
2023/08/31 00:06:26;;;;;;;2.03;1.48;;;;;;;;;;4924571;29;20151;-83
2023/08/31 00:08:54;;;;;;;3.25;1.77;;;;;;;;;;4906374;29;20048;-83
2023/08/31 00:11:21;;;;;;;2.50;1.48;;;;;;;;;;4905246;29;20041;-84
2023/08/31 00:13:47;;;;;;;2.53;1.60;;;;;;;;;;4908735;29;20048;-84
2023/08/31 00:16:14;;;;;;;2.20;1.52;;;;;;;;;;4914920;29;20103;-84
2023/08/31 00:18:41;;;;;;;3.90;1.55;;;;;;;;;;4909328;29;20096;-84
2023/08/31 00:21:08;;;;;;;2.20;1.45;;;;;;;;;;4903677;29;20048;-85
2023/08/31 00:23:38;;;;;;;3.17;1.65;;;;;;;;;;4914647;29;20048;-83
2023/08/31 00:26:08;;;;;;;4.07;1.67;;;;;;;;;;4920355;29;20522;-84
2023/08/31 00:28:37;;;;;;;2.92;1.83;;;;;;;;;;4930175;29;20124;-84
2023/08/31 00:31:03;;;;;;;2.25;1.60;;;;;;;;;;4909977;29;20155;-84
2023/08/31 00:33:33;;;;;;;2.05;1.38;;;;;;;;;;4928216;29;20140;-83
2023/08/31 00:36:03;;;;;;;2.35;1.45;;;;;;;;;;4911277;29;20046;-84
2023/08/31 00:38:30;;;;;;;1.88;1.23;;;;;;;;;;4928121;29;20064;-83
2023/08/31 00:40:57;;;;;;;5.55;1.40;;;;;;;;;;4925616;29;20134;-84
2023/08/31 00:43:24;;;;;;;2.13;1.17;;;;;;;;;;4926475;29;20127;-85
2023/08/31 00:45:51;;;;;;;5.05;1.30;;;;;;;;;;4912166;29;20045;-85
2023/08/31 00:48:18;;;;;;;3.30;1.38;;;;;;;;;;4911945;29;20130;-86
2023/08/31 00:50:46;;;;;;;2.55;1.48;;;;;;;;;;4928416;29;20191;-85
2023/08/31 00:53:13;;;;;;;2.28;1.33;;;;;;;;;;4917817;29;20052;-83
2023/08/31 00:55:40;;;;;;;2.30;1.40;;;;;;;;;;4893203;29;20048;-84
2023/08/31 00:58:07;;;;;;;3.15;1.42;;;;;;;;;;4915001;29;20060;-85
2023/08/31 01:00:49;;;;;;;2.13;1.42;;;;;;;;;;4933338;29;20126;-85
2023/08/31 01:03:25;;;;;;;3.40;1.50;;;;;;;;;;4917821;29;20051;-85
2023/08/31 01:06:12;;;;;;;2.87;1.70;;;;;;;;;;4926414;29;20047;-84
2023/08/31 01:08:45;;;;;;;2.15;1.30;;;;;;;;;;4931726;29;20059;-85
2023/08/31 01:11:37;;;;;;;2.38;1.33;;;;;;;;;;4915456;29;20051;-86
2023/08/31 01:14:11;;;;;;;2.95;1.75;;;;;;;;;;4909245;29;20057;-85
2023/08/31 01:16:39;;;;;;;5.07;1.63;;;;;;;;;;4928990;29;20423;-85
2023/08/31 01:19:11;;;;;;;2.20;1.20;;;;;;;;;;4918196;29;20680;-85
2023/08/31 01:21:40;;;;;;;2.03;1.30;;;;;;;;;;4909690;29;20052;-84
2023/08/31 01:24:07;;;;;;;2.63;1.40;;;;;;;;;;4914001;29;20059;-82
2023/08/31 01:26:34;;;;;;;2.35;1.20;;;;;;;;;;4915465;29;20076;-84
2023/08/31 01:29:02;;;;;;;2.53;1.48;;;;;;;;;;4927107;29;20060;-84
2023/08/31 01:31:29;;;;;;;2.58;1.38;;;;;;;;;;4925950;29;20054;-84
2023/08/31 01:33:55;;;;;;;2.45;1.63;;;;;;;;;;4940636;29;20125;-84
2023/08/31 01:36:26;;;;;;;4.38;1.30;;;;;;;;;;4917680;29;20045;-85
2023/08/31 01:39:01;;;;;;;2.20;1.30;;;;;;;;;;4943947;29;20060;-85
2023/08/31 01:41:34;;;;;;;2.28;1.50;;;;;;;;;;4917409;29;20056;-85
2023/08/31 01:44:02;;;;;;;2.83;1.33;;;;;;;;;;4929495;29;20056;-86
2023/08/31 01:46:32;;;;;;;3.70;1.40;;;;;;;;;;4931435;29;20044;-86
2023/08/31 01:48:59;;;;;;;3.15;1.60;;;;;;;;;;4927997;29;20067;-86
2023/08/31 01:51:28;;;;;;;3.58;1.77;;;;;;;;;;4944341;29;20052;-85
2023/08/31 01:53:56;;;;;;;3.00;1.65;;;;;;;;;;4937823;29;20071;-84
2023/08/31 01:56:22;;;;;;;5.40;1.60;;;;;;;;;;4928552;29;20063;-85
2023/08/31 01:58:49;;;;;;;2.30;1.70;;;;;;;;;;4938056;29;20049;-84
2023/08/31 02:01:18;;;;;;;2.83;1.55;;;;;;;;;;4917071;29;20048;-84
2023/08/31 02:03:45;;;;;;;4.93;1.88;;;;;;;;;;4925972;29;20033;-84
2023/08/31 02:06:12;;;;;;;2.08;1.50;;;;;;;;;;4918971;29;20065;-83
2023/08/31 02:08:39;;;;;;;2.47;1.70;;;;;;;;;;4930508;29;20056;-84
2023/08/31 02:11:06;;;;;;;2.50;1.75;;;;;;;;;;4922848;29;20099;-84
2023/08/31 02:13:32;;;;;;;4.15;2.08;;;;;;;;;;4922938;29;20495;-85
2023/08/31 02:15:59;;;;;;;4.72;2.10;;;;;;;;;;4907814;29;20044;-84
2023/08/31 02:18:26;;;;;;;2.33;1.75;;;;;;;;;;4907069;29;20044;-85
2023/08/31 02:20:53;;;;;;;5.22;1.77;;;;;;;;;;4923517;29;20055;-85
2023/08/31 02:23:20;;;;;;;4.25;2.22;;;;;;;;;;4931309;29;20546;-86
2023/08/31 02:25:47;;;;;;;4.32;2.30;;;;;;;;;;4913065;29;20068;-84
2023/08/31 02:28:14;;;;;;;3.28;2.42;;;;;;;;;;4943884;29;20044;-84
2023/08/31 02:30:43;;;;;;;3.05;2.17;;;;;;;;;;4934972;29;20045;-84
2023/08/31 02:33:10;;;;;;;3.17;2.20;;;;;;;;;;4921692;29;20044;-85
2023/08/31 02:35:38;;;;;;;4.35;2.30;;;;;;;;;;4918188;29;20408;-84
2023/08/31 02:38:05;;;;;;;4.57;2.40;;;;;;;;;;4914109;29;20127;-86
2023/08/31 02:40:31;;;;;;;6.30;2.90;;;;;;;;;;4925562;29;20049;-85
2023/08/31 02:43:01;;;;;;;7.40;2.88;;;;;;;;;;4936041;29;20049;-84
2023/08/31 02:45:27;;;;;;;5.35;3.05;;;;;;;;;;4920973;29;20055;-85
2023/08/31 02:47:55;;;;;;;5.70;2.63;;;;;;;;;;4935622;29;20099;-85
2023/08/31 02:50:22;;;;;;;5.32;2.92;;;;;;;;;;4920906;29;20060;-86
2023/08/31 02:52:49;;;;;;;4.65;2.80;;;;;;;;;;4925987;29;20450;-85
2023/08/31 02:55:16;;;;;;;9.00;3.13;;;;;;;;;;4921261;29;20096;-85
2023/08/31 02:57:43;;;;;;;5.32;3.20;;;;;;;;;;4916958;29;20060;-85
2023/08/31 03:00:12;;;;;;;5.45;2.97;;;;;;;;;;4931582;29;20048;-85
2023/08/31 03:02:39;;;;;;;4.88;3.00;;;;;;;;;;4909865;29;20085;-85
2023/08/31 03:05:06;;;;;;;5.40;3.15;;;;;;;;;;4920142;29;20068;-85
2023/08/31 03:07:34;;;;;;;4.82;2.83;;;;;;;;;;4941761;29;20118;-86
2023/08/31 03:10:00;;;;;;;5.47;2.70;;;;;;;;;;4923265;29;20055;-85
2023/08/31 03:12:28;;;;;;;4.55;2.97;;;;;;;;;;4920244;29;20128;-85
2023/08/31 03:14:55;;;;;;;3.90;2.47;;;;;;;;;;4917806;29;20728;-84
2023/08/31 03:17:24;;;;;;;5.63;2.75;;;;;;;;;;4917845;29;20527;-84
2023/08/31 03:19:54;;;;;;;6.93;2.75;;;;;;;;;;4920751;29;20048;-83
2023/08/31 03:22:24;;;;;;;3.63;2.58;;;;;;;;;;4908022;29;20062;-84
2023/08/31 03:24:51;;;;;;;4.00;2.60;;;;;;;;;;4927182;29;20049;-84
2023/08/31 03:27:19;;;;;;;4.03;2.70;;;;;;;;;;4909267;29;20504;-84
2023/08/31 03:29:45;;;;;;;3.72;2.30;;;;;;;;;;4893657;29;20044;-84
2023/08/31 03:32:12;;;;;;;6.15;2.58;;;;;;;;;;4938247;29;20441;-83
2023/08/31 03:34:47;;;;;;;5.32;2.72;;;;;;;;;;4911281;29;20734;-83
2023/08/31 03:37:14;;;;;;;4.93;2.72;;;;;;;;;;4911745;29;20133;-84
2023/08/31 03:39:43;;;;;;;4.65;2.38;;;;;;;;;;4905199;29;20426;-85
2023/08/31 03:42:09;;;;;;;4.95;2.33;;;;;;;;;;4917186;29;20511;-84
2023/08/31 03:44:37;;;;;;;4.97;2.35;;;;;;;;;;4936333;28;20139;-86
2023/08/31 03:47:04;;;;;;;5.10;2.40;;;;;;;;;;4933041;29;20096;-86
2023/08/31 03:49:31;;;;;;;4.88;2.58;;;;;;;;;;4909292;29;20044;-86
2023/08/31 03:51:59;;;;;;;3.72;2.22;;;;;;;;;;4930418;29;20495;-83
2023/08/31 03:54:26;;;;;;;5.45;2.30;;;;;;;;;;4895106;29;20508;-84
2023/08/31 03:56:53;;;;;;;4.00;2.35;;;;;;;;;;4896180;29;20073;-84
2023/08/31 03:59:20;;;;;;;5.20;2.38;;;;;;;;;;4879571;29;20044;-85
2023/08/31 04:01:47;;;;;;;6.38;2.28;;;;;;;;;;4910855;29;20677;-83
2023/08/31 04:04:14;;;;;;;4.07;2.22;;;;;;;;;;4912432;29;20036;-83
2023/08/31 04:06:40;;;;;;;4.90;2.28;;;;;;;;;;4927200;29;20044;-82
2023/08/31 04:09:07;;;;;;;3.92;2.05;;;;;;;;;;4896334;29;20047;-81
2023/08/31 04:11:34;;;;;;;3.83;1.83;;;;;;;;;;4929584;29;20040;-81
2023/08/31 04:14:02;;;;;;;4.25;1.92;;;;;;;;;;4911822;29;20055;-79
2023/08/31 04:16:29;;;;;;;4.13;1.50;;;;;;;;;;4930689;29;20048;-81
2023/08/31 04:18:58;;;;;;;2.95;1.65;;;;;;;;;;4907672;29;20061;-81
2023/08/31 04:21:25;;;;;;;3.47;1.98;;;;;;;;;;4901109;29;20049;-81
2023/08/31 04:23:51;;;;;;;3.38;1.70;;;;;;;;;;4897111;29;20563;-80
2023/08/31 04:26:19;;;;;;;3.58;1.63;;;;;;;;;;4913473;29;20131;-80
2023/08/31 04:28:46;;;;;;;4.40;1.70;;;;;;;;;;4932136;29;20075;-81
2023/08/31 04:31:12;;;;;;;3.47;1.85;;;;;;;;;;4915995;29;20097;-80
2023/08/31 04:33:40;;;;;;;3.45;1.88;;;;;;;;;;4918869;29;20063;-80
2023/08/31 04:36:06;;;;;;;3.60;1.77;;;;;;;;;;4923357;29;20594;-81
2023/08/31 04:38:37;;;;;;;7.55;2.13;;;;;;;;;;4911139;29;20055;-79
2023/08/31 04:41:04;;;;;;;5.50;2.10;;;;;;;;;;4933505;29;20071;-81
2023/08/31 04:43:31;;;;;;;3.83;2.38;;;;;;;;;;4915530;29;20082;-80
2023/08/31 04:45:58;;;;;;;6.68;2.67;;;;;;;;;;4928847;29;21014;-81
2023/08/31 04:48:27;;;;;;;3.88;2.47;;;;;;;;;;4929948;29;20052;-81
2023/08/31 04:50:56;;;;;;;6.13;2.30;;;;;;;;;;4919101;29;20041;-81
2023/08/31 04:53:22;;;;;;;4.07;2.45;;;;;;;;;;4909459;29;20746;-81
2023/08/31 04:55:49;;;;;;;5.22;2.35;;;;;;;;;;4915201;29;20059;-85
2023/08/31 04:58:16;;;;;;;5.10;2.17;;;;;;;;;;4948441;28;20060;-83
2023/08/31 05:00:44;;;;;;;4.40;2.47;;;;;;;;;;4921122;29;20055;-80
2023/08/31 05:03:11;;;;;;;3.72;2.25;;;;;;;;;;4927827;29;20054;-81
2023/08/31 05:05:38;;;;;;;3.03;2.17;;;;;;;;;;4919788;29;20052;-81
2023/08/31 05:08:05;;;;;;;5.07;2.20;;;;;;;;;;4930537;29;20061;-77
2023/08/31 05:10:32;;;;;;;3.58;2.28;;;;;;;;;;4914167;29;20235;-80
2023/08/31 05:12:59;;;;;;;3.25;2.10;;;;;;;;;;4923439;29;20080;-81
2023/08/31 05:15:27;;;;;;;6.47;2.03;;;;;;;;;;4882696;29;20048;-82
2023/08/31 05:17:54;;;;;;;4.65;2.50;;;;;;;;;;4912476;29;20132;-82
2023/08/31 05:20:24;;;;;;;3.75;2.40;;;;;;;;;;4924871;29;20404;-82
2023/08/31 05:22:50;;;;;;;5.30;2.35;;;;;;;;;;4924564;29;20104;-81
2023/08/31 05:25:20;;;;;;;5.38;2.58;;;;;;;;;;4909441;29;20056;-80
2023/08/31 05:27:46;;;;;;;4.88;2.10;;;;;;;;;;4924192;29;20598;-82
2023/08/31 05:30:16;;;;;;;4.22;2.63;;;;;;;;;;4896227;29;20056;-80
2023/08/31 05:32:43;;;;;;;5.65;2.40;;;;;;;;;;4927887;29;20064;-81
2023/08/31 05:35:10;;;;;;;6.05;2.67;;;;;;;;;;4919310;29;20048;-80
2023/08/31 05:37:36;;;;;;;5.72;2.78;;;;;;;;;;4928708;29;20052;-81
2023/08/31 05:40:10;;;;;;;3.42;2.25;;;;;;;;;;4921304;29;20135;-82
2023/08/31 05:42:39;;;;;;;4.93;2.65;;;;;;;;;;4894448;29;20060;-81
2023/08/31 05:45:06;;;;;;;4.75;2.80;;;;;;;;;;4911937;29;20044;-81
2023/08/31 05:47:33;;;;;;;5.13;2.63;;;;;;;;;;4908181;29;20507;-82
2023/08/31 05:49:59;;;;;;;6.53;2.60;;;;;;;;;;4928670;29;20048;-82
2023/08/31 05:52:27;;;;;;;3.70;2.78;;;;;;;;;;4910418;29;20067;-81
2023/08/31 05:54:53;;;;;;;6.53;2.38;;;;;;;;;;4912031;29;20423;-81
2023/08/31 05:57:22;;;;;;;5.95;3.15;;;;;;;;;;4928654;29;20044;-81
2023/08/31 05:59:48;;;;;;;6.53;2.55;;;;;;;;;;4926713;29;20072;-79
2023/08/31 06:02:15;;;;;;;7.28;2.88;;;;;;;;;;4919516;29;20047;-80
2023/08/31 06:04:43;;;;;;;5.68;2.80;;;;;;;;;;4927882;29;20116;-79
2023/08/31 06:07:09;;;;;;;5.93;2.80;;;;;;;;;;4926874;29;20055;-80
2023/08/31 06:09:37;;;;;;;6.70;2.90;;;;;;;;;;4925847;29;20051;-81
2023/08/31 06:12:05;;;;;;;5.60;3.00;;;;;;;;;;4913439;29;20052;-81
2023/08/31 06:14:32;;;;;;;4.97;2.60;;;;;;;;;;4910782;29;20442;-81
2023/08/31 06:16:59;;;;;;;6.32;3.00;;;;;;;;;;4911091;29;20504;-80
2023/08/31 06:19:25;;;;;;;5.15;2.97;;;;;;;;;;4911886;29;20462;-81
2023/08/31 06:21:52;;;;;;;8.52;3.00;;;;;;;;;;4912930;29;20041;-81
2023/08/31 06:24:19;;;;;;;8.55;3.55;;;;;;;;;;4906514;29;20048;-80
2023/08/31 06:26:45;;;;;;;6.55;3.17;;;;;;;;;;4921819;29;20041;-79
2023/08/31 06:29:12;;;;;;;5.50;2.83;;;;;;;;;;4911623;29;20037;-81
2023/08/31 06:31:42;;;;;;;5.50;3.33;;;;;;;;;;4925112;29;20104;-81
2023/08/31 06:34:09;;;;;;;5.50;3.17;;;;;;;;;;4910091;29;20095;-80
2023/08/31 06:36:35;;;;;;;7.28;3.55;;;;;;;;;;4928913;29;20475;-81
2023/08/31 06:39:04;;;;;;;10.90;4.28;;;;;;;;;;4927851;29;20316;-82
2023/08/31 06:41:31;;;;;;;5.20;3.30;;;;;;;;;;4913514;29;20044;-81
2023/08/31 06:43:57;;;;;;;8.65;3.80;;;;;;;;;;4916906;29;20135;-80
2023/08/31 06:46:24;;;;;;;5.55;3.63;;;;;;;;;;4919760;29;20538;-81
2023/08/31 06:48:52;;;;;;;5.65;3.22;;;;;;;;;;4904850;29;20052;-80
2023/08/31 06:51:19;;;;;;;5.35;3.45;;;;;;;;;;4908571;29;20048;-81
2023/08/31 06:53:49;;;;;;;5.95;3.58;;;;;;;;;;4910932;29;20292;-81
2023/08/31 06:56:16;;;;;;;7.30;3.20;;;;;;;;;;4925612;29;20060;-81
2023/08/31 06:58:43;;;;;;;7.15;3.38;;;;;;;;;;4912001;29;20059;-81
2023/08/31 07:01:13;;;;;;;7.28;3.63;;;;;;;;;;4913275;29;20589;-80
2023/08/31 07:03:40;;;;;;;10.60;3.33;;;;;;;;;;4914343;29;20048;-81
2023/08/31 07:06:07;;;;;;;6.05;3.17;;;;;;;;;;4926035;29;20040;-81
2023/08/31 07:08:34;;;;;;;5.47;3.53;;;;;;;;;;4921999;29;20076;-78
2023/08/31 07:11:00;;;;;;;8.32;3.38;;;;;;;;;;4910293;29;20059;-79
2023/08/31 07:13:27;;;;;;;9.93;3.15;;;;;;;;;;4912216;29;20056;-79
2023/08/31 07:15:54;;;;;;;8.23;3.28;;;;;;;;;;4926354;29;20055;-79
2023/08/31 07:18:21;;;;;;;3.97;2.78;;;;;;;;;;4907271;29;20103;-79
2023/08/31 07:20:47;;;;;;;5.68;3.10;;;;;;;;;;4924688;29;20135;-81
2023/08/31 07:23:14;;;;;;;5.25;3.10;;;;;;;;;;4910601;29;20041;-81
2023/08/31 07:25:42;;;;;;;7.75;3.08;;;;;;;;;;4912103;29;20054;-80
2023/08/31 07:28:08;;;;;;;4.97;2.70;;;;;;;;;;4906379;29;20682;-80
2023/08/31 07:30:35;;;;;;;5.40;3.17;;;;;;;;;;4929088;29;20081;-80
2023/08/31 07:33:03;;;;;;;5.00;2.70;;;;;;;;;;4933064;29;20063;-79
2023/08/31 07:35:49;;;;;;;6.55;2.90;;;;;;;;;;4903537;29;20055;-81
2023/08/31 07:38:16;;;;;;;6.85;2.65;;;;;;;;;;4912106;29;20056;-80
2023/08/31 07:40:43;;;;;;;6.97;2.92;;;;;;;;;;4913809;29;20060;-81
2023/08/31 07:43:10;;;;;;;4.70;2.83;;;;;;;;;;4921754;29;20059;-81
2023/08/31 07:45:38;;;;;;;5.72;3.10;;;;;;;;;;4929130;29;20048;-82
2023/08/31 07:48:05;;;;;;;7.07;3.00;;;;;;;;;;4910365;29;20539;-82
2023/08/31 07:50:34;;;;;;;6.18;3.47;;;;;;;;;;4904818;29;20055;-81
2023/08/31 07:53:00;;;;;;;5.72;2.40;;;;;;;;;;4921631;29;20305;-81
2023/08/31 07:55:27;;;;;;;4.55;2.45;;;;;;;;;;4909990;29;20052;-81
2023/08/31 07:57:54;;;;;;;8.15;2.70;;;;;;;;;;4909443;29;20283;-81
2023/08/31 08:00:20;;;;;;;5.82;2.42;;;;;;;;;;4927762;29;20104;-82
2023/08/31 08:02:47;;;;;;;8.40;2.95;;;;;;;;;;4913089;29;20048;-82
2023/08/31 08:05:15;;;;;;;7.15;2.78;;;;;;;;;;4911556;29;20059;-81
2023/08/31 08:07:42;;;;;;;4.03;2.80;;;;;;;;;;4923900;29;20044;-83
2023/08/31 08:10:09;;;;;;;7.10;2.97;;;;;;;;;;4932410;29;20044;-82
2023/08/31 08:12:40;;;;;;;6.40;2.17;;;;;;;;;;4917791;29;20052;-83
2023/08/31 08:15:08;;;;;;;4.45;2.47;;;;;;;;;;4920570;29;20048;-82
2023/08/31 08:17:35;;;;;;;6.93;2.50;;;;;;;;;;4906987;29;20060;-82
2023/08/31 08:20:03;;;;;;;5.68;2.13;;;;;;;;;;4919783;29;20055;-79
2023/08/31 08:22:29;;;;;;;6.95;2.40;;;;;;;;;;4911472;29;20047;-80
2023/08/31 08:24:56;;;;;;;3.38;1.80;;;;;;;;;;4925410;29;20052;-82
2023/08/31 08:27:25;;;;;;;5.22;1.85;;;;;;;;;;4922310;29;20037;-81
2023/08/31 08:29:51;;;;;;;4.95;2.10;;;;;;;;;;4912220;29;20071;-82
2023/08/31 08:32:18;;;;;;;3.83;2.30;;;;;;;;;;4912994;29;20056;-81
2023/08/31 08:34:44;;;;;;;6.68;2.30;;;;;;;;;;4924591;29;20425;-81
2023/08/31 08:37:11;;;;;;;4.75;2.17;;;;;;;;;;4932719;29;20096;-82
2023/08/31 08:39:38;;;;;;;7.15;1.80;;;;;;;;;;4925824;28;20048;-81
2023/08/31 08:42:05;;;;;;;4.30;2.10;;;;;;;;;;4910779;29;20056;-80
2023/08/31 08:44:32;;;;;;;6.30;1.75;;;;;;;;;;4912488;29;20115;-81
2023/08/31 08:47:00;;;;;;;2.60;1.60;;;;;;;;;;4907306;29;20048;-81
2023/08/31 08:49:28;;;;;;;3.00;1.70;;;;;;;;;;4924181;29;20088;-81
2023/08/31 08:51:54;;;;;;;5.70;1.80;;;;;;;;;;4927400;29;20134;-81
2023/08/31 08:54:21;;;;;;;5.18;1.88;;;;;;;;;;4915783;29;20419;-80
2023/08/31 08:56:48;;;;;;;4.00;1.92;;;;;;;;;;4909922;29;20052;-80
2023/08/31 08:59:16;;;;;;;3.05;1.58;;;;;;;;;;4900605;29;20049;-79
2023/08/31 09:01:43;;;;;;;3.35;1.50;;;;;;;;;;4907760;29;20052;-81
2023/08/31 09:04:10;;;;;;;3.05;1.58;;;;;;;;;;4906078;29;20459;-79
2023/08/31 09:06:36;;;;;;;5.30;1.80;;;;;;;;;;4927439;29;20498;-80
2023/08/31 09:09:03;;;;;;;2.03;1.48;;;;;;;;;;4910136;29;20052;-81
2023/08/31 09:11:30;;;;;;;4.90;1.70;;;;;;;;;;4911938;29;20052;-81
2023/08/31 09:13:57;;;;;;;4.20;1.60;;;;;;;;;;4913185;29;20551;-81
2023/08/31 09:16:28;;;;;;;4.97;1.70;;;;;;;;;;4924598;29;20101;-80
2023/08/31 09:18:56;;;;;;;5.30;1.88;;;;;;;;;;4917384;29;20036;-81
2023/08/31 09:21:34;;;;;;;5.57;2.00;;;;;;;;;;4911859;29;20060;-81
2023/08/31 09:24:02;;;;;;;3.85;1.83;;;;;;;;;;4910676;29;21018;-82
2023/08/31 09:26:34;;;;;;;4.72;1.90;;;;;;;;;;4911629;29;20495;-81
2023/08/31 09:29:01;;;;;;;3.72;1.75;;;;;;;;;;4899136;29;20056;-81
2023/08/31 09:31:29;;;;;;;4.32;2.17;;;;;;;;;;4916116;29;20048;-79
2023/08/31 09:33:55;;;;;;;5.10;1.70;;;;;;;;;;4927069;29;20049;-82
2023/08/31 09:36:23;;;;;;;7.20;1.77;;;;;;;;;;4930456;29;20492;-81
2023/08/31 09:38:49;;;;;;;3.60;1.60;;;;;;;;;;4916860;29;20100;-80
2023/08/31 09:41:16;;;;;;;5.85;1.60;;;;;;;;;;4915584;29;20053;-81
2023/08/31 09:43:43;;;;;;;3.67;1.75;;;;;;;;;;4898030;29;20535;-81
2023/08/31 09:46:10;;;;;;;4.22;1.90;;;;;;;;;;4915795;29;20096;-80
2023/08/31 09:48:38;;;;;;;7.03;1.55;;;;;;;;;;4928926;29;20060;-79
2023/08/31 09:51:06;;;;;;;3.80;1.67;;;;;;;;;;4906646;29;20048;-79
2023/08/31 09:53:35;;;;;;;3.53;1.60;;;;;;;;;;4902282;29;20055;-80
2023/08/31 09:56:04;;;;;;;8.13;1.63;;;;;;;;;;4897009;29;20123;-81
2023/08/31 09:58:31;;;;;;;3.65;1.63;;;;;;;;;;4906862;29;20496;-78
2023/08/31 10:00:58;;;;;;;3.90;1.73;;;;;;;;;;4912608;29;20052;-80
2023/08/31 10:03:26;;;;;;;4.10;1.45;;;;;;;;;;4913577;29;20139;-80
2023/08/31 10:05:54;;;;;;;8.13;1.40;;;;;;;;;;4931315;29;20409;-80
2023/08/31 10:08:20;;;;;;;4.70;1.58;;;;;;;;;;4913201;29;20119;-81
2023/08/31 10:10:47;;;;;;;2.63;1.42;;;;;;;;;;4896870;29;20420;-80
2023/08/31 10:13:15;;;;;;;4.97;1.52;;;;;;;;;;4914928;29;20044;-80
2023/08/31 10:15:43;;;;;;;4.63;1.63;;;;;;;;;;4911663;29;20080;-79
2023/08/31 10:18:10;;;;;;;7.65;1.80;;;;;;;;;;4921096;29;20032;-80
2023/08/31 10:20:36;;;;;;;4.47;1.63;;;;;;;;;;4924431;29;20054;-80
2023/08/31 10:23:04;;;;;;;6.03;2.22;;;;;;;;;;4913312;29;20199;-79
2023/08/31 10:25:54;;;;;;;4.85;1.92;;;;;;;;;;4909788;29;20059;-78
2023/08/31 10:28:22;;;;;;;5.65;1.75;;;;;;;;;;4919041;29;20479;-80
2023/08/31 10:31:05;;;;;;;4.25;1.80;;;;;;;;;;4911050;29;20044;-80
2023/08/31 10:33:34;;;;;;;3.95;1.50;;;;;;;;;;4912287;29;20598;-80
2023/08/31 10:36:00;;;;;;;3.75;1.50;;;;;;;;;;4928636;29;20514;-80
2023/08/31 10:38:30;;;;;;;2.10;1.10;;;;;;;;;;4919488;29;20464;-81
2023/08/31 10:41:00;;;;;;;4.53;1.17;;;;;;;;;;4907705;29;20133;-80
2023/08/31 10:43:26;;;;;;;2.67;1.10;;;;;;;;;;4919985;29;20431;-78
2023/08/31 10:46:29;;;;;;;2.85;1.13;;;;;;;;;;4905851;29;21008;-79
2023/08/31 10:49:00;;;;;;;2.90;1.10;;;;;;;;;;4907054;29;20444;-79
2023/08/31 10:51:30;;;;;;;2.00;1.00;;;;;;;;;;4899598;29;21576;-80
2023/08/31 10:54:06;;;;;;;5.38;1.40;;;;;;;;;;4927317;29;20087;-80
2023/08/31 10:56:33;;;;;;;2.00;1.02;;;;;;;;;;4920320;29;20048;-80
2023/08/31 10:59:00;;;;;;;3.53;1.17;;;;;;;;;;4929431;29;21240;-80
2023/08/31 11:01:49;;;;;;;2.95;1.20;;;;;;;;;;4899545;29;20099;-80
2023/08/31 11:04:16;;;;;;;3.05;1.20;;;;;;;;;;4910103;29;20357;-80
2023/08/31 11:06:43;;;;;;;5.07;1.33;;;;;;;;;;4911432;29;20055;-81
2023/08/31 11:09:18;;;;;;;6.35;1.20;;;;;;;;;;4926341;29;20051;-81
2023/08/31 11:11:45;;;;;;;3.05;1.10;;;;;;;;;;4904200;29;20071;-80
2023/08/31 11:14:11;;;;;;;2.30;1.15;;;;;;;;;;4915990;29;20044;-80
2023/08/31 11:16:38;;;;;;;4.03;0.90;;;;;;;;;;4929196;29;20052;-80
2023/08/31 11:19:05;;;;;;;2.33;1.00;;;;;;;;;;4912974;29;20048;-82
2023/08/31 11:21:32;;;;;;;2.78;1.00;;;;;;;;;;4917583;29;20321;-80
2023/08/31 11:23:58;;;;;;;2.53;1.23;;;;;;;;;;4936243;29;20079;-79
2023/08/31 11:26:26;;;;;;;3.42;1.30;;;;;;;;;;4939765;29;20083;-80
2023/08/31 11:28:55;;;;;;;2.35;1.10;;;;;;;;;;4922669;29;20450;-79
2023/08/31 11:31:25;;;;;;;4.68;1.40;;;;;;;;;;4920142;29;20056;-79
2023/08/31 11:33:54;;;;;;;2.72;0.98;;;;;;;;;;4927851;29;20040;-80
2023/08/31 11:36:21;;;;;;;3.47;1.23;;;;;;;;;;4887778;29;20048;-79
2023/08/31 11:38:48;;;;;;;1.92;1.10;;;;;;;;;;4914945;29;20499;-79
2023/08/31 11:41:15;;;;;;;3.70;1.25;;;;;;;;;;4914010;29;20055;-80
2023/08/31 11:43:42;;;;;;;3.58;1.35;;;;;;;;;;4926715;29;20284;-80
2023/08/31 11:46:09;;;;;;;2.45;1.00;;;;;;;;;;4895679;29;20169;-80
2023/08/31 11:48:36;;;;;;;2.00;1.00;;;;;;;;;;4922632;29;20050;-80
2023/08/31 11:51:03;;;;;;;2.55;1.10;;;;;;;;;;4933076;29;20074;-80
2023/08/31 11:53:30;;;;;;;3.45;1.15;;;;;;;;;;4920969;29;20052;-80
2023/08/31 11:55:56;;;;;;;2.30;0.93;;;;;;;;;;4923541;29;20048;-82
2023/08/31 11:58:25;;;;;;;2.15;1.00;;;;;;;;;;4889450;29;20341;-81
2023/08/31 12:00:56;;;;;;;4.82;0.90;;;;;;;;;;4913063;29;20048;-80
2023/08/31 12:03:25;;;;;;;2.20;0.95;;;;;;;;;;4897618;29;20056;-80
2023/08/31 12:06:14;;;;;;;1.65;0.80;;;;;;;;;;4898828;29;20056;-81
2023/08/31 12:08:41;;;;;;;1.67;1.05;;;;;;;;;;4932011;29;20177;-82
2023/08/31 12:11:08;;;;;;;2.33;1.10;;;;;;;;;;4932276;29;20060;-81
2023/08/31 12:13:34;;;;;;;3.25;1.15;;;;;;;;;;4918263;29;20104;-81
2023/08/31 12:16:04;;;;;;;1.30;0.90;;;;;;;;;;4920438;29;20056;-80
2023/08/31 12:18:34;;;;;;;1.67;1.00;;;;;;;;;;4919211;29;20053;-79
2023/08/31 12:21:01;;;;;;;1.60;0.90;;;;;;;;;;4904645;29;20111;-81
2023/08/31 12:23:27;;;;;;;1.95;1.02;;;;;;;;;;4909811;29;20219;-81
2023/08/31 12:25:54;;;;;;;2.47;1.00;;;;;;;;;;4912094;29;20063;-82
2023/08/31 12:28:22;;;;;;;2.70;0.80;;;;;;;;;;4911718;29;20076;-80
2023/08/31 12:30:49;;;;;;;2.45;0.88;;;;;;;;;;4908014;29;20048;-81
2023/08/31 12:33:16;;;;;;;1.85;0.77;;;;;;;;;;4887640;29;20051;-82
2023/08/31 12:35:43;;;;;;;1.98;1.00;;;;;;;;;;4901286;29;20048;-80
2023/08/31 12:38:11;;;;;;;1.50;0.75;;;;;;;;;;4905690;29;20055;-81
2023/08/31 12:40:40;;;;;;;2.28;1.10;;;;;;;;;;4909960;29;21612;-82
2023/08/31 12:43:08;;;;;;;1.85;0.80;;;;;;;;;;4912247;29;20040;-80
2023/08/31 12:45:34;;;;;;;2.78;1.00;;;;;;;;;;4912846;29;24715;-81
2023/08/31 12:48:01;;;;;;;4.05;1.10;;;;;;;;;;4920057;29;20713;-80
2023/08/31 12:50:27;;;;;;;4.47;1.00;;;;;;;;;;4922607;29;20099;-81
2023/08/31 12:52:54;;;;;;;2.60;1.10;;;;;;;;;;4914452;29;20103;-80
2023/08/31 12:55:21;;;;;;;2.45;1.23;;;;;;;;;;4932332;29;20050;-80
2023/08/31 12:57:47;;;;;;;2.50;1.15;;;;;;;;;;4934357;29;20175;-81
2023/08/31 13:00:14;;;;;;;2.50;0.95;;;;;;;;;;4930341;29;20040;-80
2023/08/31 13:02:42;;;;;;;2.33;1.42;;;;;;;;;;4920260;29;20074;-79
2023/08/31 13:05:09;;;;;;;2.30;0.98;;;;;;;;;;4918627;29;20062;-80
2023/08/31 13:07:36;;;;;;;1.90;1.00;;;;;;;;;;4915600;29;20044;-79
2023/08/31 13:10:04;;;;;;;6.65;0.98;;;;;;;;;;4911683;29;20515;-80
2023/08/31 13:12:31;;;;;;;3.38;1.23;;;;;;;;;;4920592;29;20072;-82
2023/08/31 13:14:58;;;;;;;2.90;0.95;;;;;;;;;;4920165;29;20425;-82
2023/08/31 13:17:26;;;;;;;6.05;1.30;;;;;;;;;;4919667;29;20051;-80
2023/08/31 13:19:53;;;;;;;2.97;1.00;;;;;;;;;;4915945;29;20045;-80
2023/08/31 13:22:20;;;;;;;4.97;1.08;;;;;;;;;;4905598;29;20508;-81
2023/08/31 13:24:47;;;;;;;2.78;0.90;;;;;;;;;;4895454;29;20040;-79
2023/08/31 13:27:14;;;;;;;2.28;1.00;;;;;;;;;;4912342;29;20664;-80
2023/08/31 13:29:41;;;;;;;5.60;1.23;;;;;;;;;;4928139;29;20048;-81
2023/08/31 13:32:08;;;;;;;5.90;1.10;;;;;;;;;;4934603;29;20079;-80
2023/08/31 13:34:38;;;;;;;7.65;1.23;;;;;;;;;;4932270;29;20056;-80
2023/08/31 13:37:06;;;;;;;2.75;0.95;;;;;;;;;;4903679;29;20044;-79
2023/08/31 13:39:35;;;;;;;3.78;1.10;;;;;;;;;;4935658;29;20052;-78
2023/08/31 13:42:03;;;;;;;6.22;0.98;;;;;;;;;;4914831;29;20043;-80
2023/08/31 13:44:31;;;;;;;3.00;1.10;;;;;;;;;;4917770;29;20036;-79
2023/08/31 13:46:58;;;;;;;3.08;1.17;;;;;;;;;;4917632;29;20144;-79
2023/08/31 13:49:24;;;;;;;3.17;1.02;;;;;;;;;;4930205;29;20400;-79
2023/08/31 13:51:51;;;;;;;2.90;0.98;;;;;;;;;;4912591;29;20044;-79
2023/08/31 13:54:18;;;;;;;2.22;1.00;;;;;;;;;;4914420;29;20477;-79
2023/08/31 13:56:44;;;;;;;1.42;0.80;;;;;;;;;;4918453;29;20136;-80
2023/08/31 13:59:11;;;;;;;2.58;0.90;;;;;;;;;;4919824;29;20472;-80
2023/08/31 14:01:38;;;;;;;2.35;0.88;;;;;;;;;;4927603;29;20119;-79
2023/08/31 14:04:05;;;;;;;1.88;0.90;;;;;;;;;;4925884;28;20562;-79
2023/08/31 14:06:31;;;;;;;1.30;0.70;;;;;;;;;;4916622;29;20040;-79
2023/08/31 14:08:58;;;;;;;2.15;1.02;;;;;;;;;;4914117;29;20056;-78
2023/08/31 14:11:29;;;;;;;4.60;0.90;;;;;;;;;;4918365;29;20048;-80
2023/08/31 14:14:09;;;;;;;3.28;0.73;;;;;;;;;;4904630;29;20044;-80
2023/08/31 14:16:38;;;;;;;1.20;0.60;;;;;;;;;;4935631;29;20040;-78
2023/08/31 14:19:05;;;;;;;2.80;0.85;;;;;;;;;;4912158;29;20060;-78
2023/08/31 14:21:32;;;;;;;1.90;0.65;;;;;;;;;;4930941;29;20048;-80
2023/08/31 14:23:59;;;;;;;1.48;0.80;;;;;;;;;;4915862;29;20063;-81
2023/08/31 14:26:25;;;;;;;2.17;0.80;;;;;;;;;;4930021;29;20052;-79
2023/08/31 14:28:52;;;;;;;1.92;0.90;;;;;;;;;;4936141;29;20411;-80
2023/08/31 14:31:19;;;;;;;3.25;0.90;;;;;;;;;;4914980;29;20044;-80
2023/08/31 14:33:46;;;;;;;1.05;0.60;;;;;;;;;;4934206;29;20063;-80
2023/08/31 14:36:14;;;;;;;1.77;0.80;;;;;;;;;;4919224;29;20048;-80
2023/08/31 14:38:41;;;;;;;5.35;0.75;;;;;;;;;;4882826;29;20059;-80
2023/08/31 14:41:07;;;;;;;1.88;0.80;;;;;;;;;;4938859;29;20052;-81
2023/08/31 14:43:34;;;;;;;3.17;0.80;;;;;;;;;;4903170;29;20455;-81
2023/08/31 14:46:01;;;;;;;1.35;0.70;;;;;;;;;;4914850;29;20127;-81
2023/08/31 14:48:28;;;;;;;1.55;0.60;;;;;;;;;;4929815;29;20116;-83